Time;durP1;ratioP1;P1;durP2;ratioP2;P2;SDS_P1;SDS_P2;PMS_P1;PMS_P2;Temp;Humidity;BMP_temperature;BMP_pressure;BME280_temperature;BME280_humidity;BME280_pressure;Samples;Min_cycle;Max_cycle;Signal;HPM_P1;HPM_P2
2022/03/02 00:00:08;;;;;;;178.43;56.38;;;;;;;-4.29;51.88;99644.06;5112980;28;20028;-77
2022/03/02 00:02:34;;;;;;;173.65;55.50;;;;;;;-4.37;52.16;99636.84;5113044;28;20028;-77
2022/03/02 00:04:59;;;;;;;182.20;57.08;;;;;;;-4.44;51.91;99635.03;5112622;28;20022;-77
2022/03/02 00:07:25;;;;;;;164.65;53.85;;;;;;;-4.52;52.32;99634.03;5111362;28;20080;-77
2022/03/02 00:09:50;;;;;;;164.32;51.60;;;;;;;-4.58;52.31;99633.88;5111119;28;20103;-76
2022/03/02 00:12:16;;;;;;;173.73;52.45;;;;;;;-4.64;52.76;99632.69;5110966;28;20055;-76
2022/03/02 00:14:41;;;;;;;178.93;53.40;;;;;;;-4.68;53.10;99629.53;5110831;28;20011;-76
2022/03/02 00:17:07;;;;;;;168.82;52.72;;;;;;;-4.69;53.28;99627.03;5111151;28;20023;-76
2022/03/02 00:19:33;;;;;;;179.85;54.90;;;;;;;-4.70;52.91;99626.19;5110329;27;20015;-76
2022/03/02 00:21:59;;;;;;;179.52;56.88;;;;;;;-4.70;52.80;99623.50;5110191;28;20028;-76
2022/03/02 00:24:24;;;;;;;177.55;55.30;;;;;;;-4.72;53.35;99620.16;5110431;28;20046;-77
2022/03/02 00:26:50;;;;;;;174.07;53.70;;;;;;;-4.75;53.24;99623.16;5111390;28;20027;-76
2022/03/02 00:29:16;;;;;;;175.57;51.88;;;;;;;-4.80;53.20;99621.00;5108960;28;20023;-76
2022/03/02 00:31:41;;;;;;;174.38;52.67;;;;;;;-4.83;53.62;99624.00;5109595;28;20389;-75
2022/03/02 00:34:06;;;;;;;176.15;55.13;;;;;;;-4.85;54.02;99619.81;5109740;28;20008;-75
2022/03/02 00:36:32;;;;;;;185.68;55.05;;;;;;;-4.90;53.56;99612.31;5108687;28;20355;-76
2022/03/02 00:38:57;;;;;;;183.38;56.13;;;;;;;-4.95;53.51;99609.28;5110141;28;20555;-82
2022/03/02 00:41:23;;;;;;;181.90;54.35;;;;;;;-5.00;53.96;99614.28;5109842;28;20023;-78
2022/03/02 00:43:48;;;;;;;183.20;55.67;;;;;;;-5.03;54.60;99612.81;5110454;28;20027;-79
2022/03/02 00:46:14;;;;;;;176.48;51.20;;;;;;;-5.04;54.43;99610.28;5109192;28;20084;-78
2022/03/02 00:48:40;;;;;;;179.55;52.97;;;;;;;-5.05;54.23;99613.94;5109553;28;20072;-78
2022/03/02 00:51:06;;;;;;;167.32;51.05;;;;;;;-5.08;54.57;99604.44;5109187;28;20019;-78
2022/03/02 00:53:32;;;;;;;182.13;51.35;;;;;;;-5.10;54.60;99601.94;5109631;28;20676;-78
2022/03/02 00:55:57;;;;;;;156.85;50.63;;;;;;;-5.09;54.11;99597.41;5109342;28;20102;-78
2022/03/02 00:58:23;;;;;;;171.93;48.55;;;;;;;-5.10;54.25;99595.75;5109465;28;20122;-79
2022/03/02 01:00:48;;;;;;;164.25;48.60;;;;;;;-5.13;55.00;99598.75;5109305;28;20024;-80
2022/03/02 01:03:14;;;;;;;172.40;49.33;;;;;;;-5.16;54.60;99591.91;5109250;28;20309;-80
2022/03/02 01:05:39;;;;;;;166.75;49.65;;;;;;;-5.15;54.35;99595.41;5108892;28;20110;-81
2022/03/02 01:08:05;;;;;;;161.73;48.70;;;;;;;-5.19;54.74;99586.88;5109605;28;20023;-80
2022/03/02 01:10:31;;;;;;;165.93;50.45;;;;;;;-5.20;55.04;99582.53;5109461;28;20116;-81
2022/03/02 01:12:56;;;;;;;166.15;52.22;;;;;;;-5.20;54.87;99587.03;5109127;28;20495;-81
2022/03/02 01:15:22;;;;;;;167.00;52.03;;;;;;;-5.18;55.34;99588.56;5108879;28;20091;-81
2022/03/02 01:17:47;;;;;;;166.63;49.15;;;;;;;-5.20;54.52;99579.00;5108890;28;20589;-81
2022/03/02 01:20:13;;;;;;;158.38;48.80;;;;;;;-5.23;54.87;99582.88;5108724;28;20082;-81
2022/03/02 01:22:39;;;;;;;174.55;50.25;;;;;;;-5.25;55.51;99582.19;5108709;28;20038;-81
2022/03/02 01:25:07;;;;;;;161.43;49.97;;;;;;;-5.24;55.36;99573.16;5108319;28;20379;-80
2022/03/02 01:27:32;;;;;;;166.88;48.30;;;;;;;-5.25;54.92;99574.16;5107289;28;20500;-81
2022/03/02 01:29:58;;;;;;;170.13;49.13;;;;;;;-5.26;55.49;99572.50;5108405;28;20067;-82
2022/03/02 01:32:24;;;;;;;178.13;49.35;;;;;;;-5.28;55.09;99567.28;5108822;28;20032;-81
2022/03/02 01:34:50;;;;;;;164.65;47.90;;;;;;;-5.28;55.62;99561.13;5108545;28;20058;-81
2022/03/02 01:37:16;;;;;;;156.45;47.22;;;;;;;-5.27;55.60;99562.78;5090621;28;20016;-81
2022/03/02 01:39:42;;;;;;;170.70;49.95;;;;;;;-5.29;55.76;99565.63;5108909;28;20024;-81
2022/03/02 01:42:07;;;;;;;171.13;49.53;;;;;;;-5.31;55.14;99562.31;5108895;28;20482;-81
2022/03/02 01:44:35;;;;;;;155.63;45.05;;;;;;;-5.33;55.91;99561.63;5109354;28;20024;-80
2022/03/02 01:47:01;;;;;;;144.45;44.63;;;;;;;-5.35;55.52;99555.63;5108459;28;20031;-79
2022/03/02 01:49:27;;;;;;;136.55;42.92;;;;;;;-5.37;56.01;99568.31;5108471;28;20028;-79
2022/03/02 01:51:52;;;;;;;139.77;43.15;;;;;;;-5.42;56.06;99562.63;5108559;28;20030;-79
2022/03/02 01:54:18;;;;;;;134.05;43.40;;;;;;;-5.45;55.75;99565.63;5107918;28;20362;-79
2022/03/02 01:56:43;;;;;;;130.15;44.15;;;;;;;-5.50;56.12;99558.06;5108434;28;20022;-79
2022/03/02 01:59:10;;;;;;;130.30;42.47;;;;;;;-5.53;56.19;99564.59;5108263;28;20058;-79
2022/03/02 02:01:35;;;;;;;129.80;43.20;;;;;;;-5.53;56.26;99553.91;5107486;28;20387;-79
2022/03/02 02:04:02;;;;;;;123.55;43.05;;;;;;;-5.51;56.58;99563.59;5108083;28;20080;-79
2022/03/02 02:06:29;;;;;;;126.30;41.17;;;;;;;-5.51;56.94;99555.59;5089605;28;20023;-77
2022/03/02 02:08:54;;;;;;;127.43;42.00;;;;;;;-5.52;57.31;99557.44;5108138;28;20110;-80
2022/03/02 02:11:20;;;;;;;123.90;42.33;;;;;;;-5.52;56.88;99560.09;5108062;28;20127;-80
2022/03/02 02:13:45;;;;;;;117.38;41.30;;;;;;;-5.50;57.57;99555.41;5108635;28;20036;-79
2022/03/02 02:16:13;;;;;;;118.00;42.28;;;;;;;-5.50;57.42;99549.22;5107546;28;20023;-77
2022/03/02 02:18:39;;;;;;;123.90;41.95;;;;;;;-5.49;57.22;99540.22;5107804;28;20035;-76
2022/03/02 02:21:06;;;;;;;124.78;42.38;;;;;;;-5.49;57.26;99546.38;5108046;28;20552;-77
2022/03/02 02:23:31;;;;;;;114.07;39.97;;;;;;;-5.48;57.44;99547.22;5107522;28;20088;-77
2022/03/02 02:25:57;;;;;;;125.95;43.78;;;;;;;-5.47;56.83;99540.88;5107812;28;20027;-77
2022/03/02 02:28:26;;;;;;;122.03;42.65;;;;;;;-5.44;57.13;99548.56;5108071;28;20031;-76
2022/03/02 02:30:58;;;;;;;122.10;44.92;;;;;;;-5.46;57.24;99539.88;5088788;28;20533;-76
2022/03/02 02:33:25;;;;;;;114.80;44.13;;;;;;;-5.42;57.15;99533.22;5107103;28;20030;-77
2022/03/02 02:35:52;;;;;;;123.15;47.35;;;;;;;-5.42;56.62;99543.91;5108453;28;20474;-77
2022/03/02 02:38:21;;;;;;;116.35;42.83;;;;;;;-5.44;57.54;99530.69;5108417;28;20031;-77
2022/03/02 02:40:50;;;;;;;129.15;44.05;;;;;;;-5.47;57.53;99531.00;5109296;28;20396;-77
2022/03/02 02:43:17;;;;;;;118.45;45.55;;;;;;;-5.50;57.75;99526.00;5090237;28;20028;-77
2022/03/02 02:45:44;;;;;;;119.95;42.35;;;;;;;-5.55;57.00;99531.03;5108234;28;20034;-78
2022/03/02 02:48:10;;;;;;;111.88;40.58;;;;;;;-5.59;57.20;99521.66;5109069;28;20027;-78
2022/03/02 02:50:35;;;;;;;122.82;43.38;;;;;;;-5.60;57.57;99528.00;5108991;28;20031;-78
2022/03/02 02:53:04;;;;;;;133.80;45.00;;;;;;;-5.61;57.68;99526.34;5107777;28;20044;-78
2022/03/02 02:55:30;;;;;;;114.82;41.35;;;;;;;-5.61;57.54;99529.84;5106965;28;20479;-78
2022/03/02 02:57:57;;;;;;;115.03;41.22;;;;;;;-5.60;57.74;99526.16;5108177;28;20039;-79
2022/03/02 03:00:25;;;;;;;104.78;39.97;;;;;;;-5.61;57.69;99526.34;5111067;28;20031;-78
2022/03/02 03:02:53;;;;;;;108.22;39.90;;;;;;;-5.64;57.93;99526.66;5111008;28;20692;-78
2022/03/02 03:05:21;;;;;;;101.18;39.10;;;;;;;-5.68;58.33;99521.66;5111518;28;20058;-77
2022/03/02 03:07:48;;;;;;;110.93;40.33;;;;;;;-5.69;58.16;99521.78;5111515;28;20026;-80
2022/03/02 03:10:15;;;;;;;108.95;40.55;;;;;;;-5.69;58.05;99521.78;5111268;28;20034;-79
2022/03/02 03:12:44;;;;;;;113.68;39.97;;;;;;;-5.67;58.27;99519.78;5111864;28;20016;-79
2022/03/02 03:15:12;;;;;;;114.80;39.90;;;;;;;-5.65;58.32;99525.81;5109928;28;20030;-77
2022/03/02 03:17:38;;;;;;;106.10;39.53;;;;;;;-5.68;58.74;99524.31;5093026;28;20092;-78
2022/03/02 03:20:06;;;;;;;106.00;40.08;;;;;;;-5.66;58.15;99517.97;5111024;28;20076;-78
2022/03/02 03:22:32;;;;;;;101.55;37.63;;;;;;;-5.69;58.67;99517.31;5110893;28;20678;-78
2022/03/02 03:24:58;;;;;;;105.43;37.08;;;;;;;-5.70;58.22;99514.78;5111086;28;20027;-78
2022/03/02 03:27:23;;;;;;;93.93;38.42;;;;;;;-5.74;58.42;99516.94;5111354;28;20114;-78
2022/03/02 03:29:48;;;;;;;101.13;37.85;;;;;;;-5.75;58.80;99515.28;5110049;28;20023;-78
2022/03/02 03:32:14;;;;;;;103.85;39.20;;;;;;;-5.77;58.38;99509.25;5111130;28;20529;-78
2022/03/02 03:34:39;;;;;;;106.80;39.10;;;;;;;-5.78;58.92;99512.94;5111230;28;20019;-79
2022/03/02 03:37:05;;;;;;;103.18;37.17;;;;;;;-5.77;58.65;99511.13;5107314;28;20039;-78
2022/03/02 03:39:30;;;;;;;101.28;36.92;;;;;;;-5.78;58.34;99512.13;5111241;28;20023;-79
2022/03/02 03:41:56;;;;;;;107.07;36.50;;;;;;;-5.79;58.86;99502.44;5110809;28;20034;-78
2022/03/02 03:44:24;;;;;;;89.82;33.08;;;;;;;-5.81;59.11;99507.91;5090892;28;20028;-78
2022/03/02 03:46:50;;;;;;;95.50;34.85;;;;;;;-5.84;58.73;99502.91;5111480;28;20077;-78
2022/03/02 03:49:15;;;;;;;91.63;36.22;;;;;;;-5.88;58.74;99498.88;5111591;28;20035;-78
2022/03/02 03:51:41;;;;;;;103.43;37.78;;;;;;;-5.92;59.03;99506.41;5111955;28;20023;-78
2022/03/02 03:54:06;;;;;;;121.05;41.70;;;;;;;-5.93;58.90;99503.91;5111502;28;20038;-78
2022/03/02 03:56:32;;;;;;;149.23;47.53;;;;;;;-5.95;58.86;99505.91;5111167;28;20031;-78
2022/03/02 03:59:01;;;;;;;136.50;47.72;;;;;;;-5.95;59.53;99504.06;5111047;28;20123;-78
2022/03/02 04:01:26;;;;;;;126.50;45.30;;;;;;;-5.96;59.66;99490.88;5111236;28;20110;-78
2022/03/02 04:03:52;;;;;;;143.30;46.25;;;;;;;-5.95;59.46;99489.88;5111470;28;20115;-77
2022/03/02 04:06:17;;;;;;;139.30;46.67;;;;;;;-5.96;59.50;99498.88;5111129;28;20460;-77
2022/03/02 04:08:43;;;;;;;172.30;52.67;;;;;;;-5.95;59.43;99504.06;5106823;28;20023;-78
2022/03/02 04:11:09;;;;;;;141.32;45.50;;;;;;;-5.92;60.11;99505.56;5091124;28;20114;-77
2022/03/02 04:13:34;;;;;;;154.40;48.28;;;;;;;-5.90;59.84;99503.53;5111680;28;20464;-78
2022/03/02 04:16:00;;;;;;;138.93;45.63;;;;;;;-5.88;59.63;99507.75;5111111;28;20023;-78
2022/03/02 04:18:25;;;;;;;127.03;42.78;;;;;;;-5.85;59.51;99506.56;5111337;28;20105;-77
2022/03/02 04:20:52;;;;;;;140.48;43.90;;;;;;;-5.84;59.71;99502.91;5111058;28;20027;-77
2022/03/02 04:23:18;;;;;;;130.50;43.42;;;;;;;-5.83;59.87;99494.72;5089733;28;20082;-77
2022/03/02 04:25:43;;;;;;;127.65;42.10;;;;;;;-5.83;59.35;99499.22;5110389;28;20035;-77
2022/03/02 04:28:09;;;;;;;104.20;39.72;;;;;;;-5.85;59.73;99495.88;5110874;28;20384;-77
2022/03/02 04:30:34;;;;;;;99.88;37.13;;;;;;;-5.89;59.68;99495.38;5110596;28;20067;-77
2022/03/02 04:33:00;;;;;;;109.05;37.67;;;;;;;-5.90;60.12;99501.72;5110752;28;20028;-78
2022/03/02 04:35:26;;;;;;;102.55;36.65;;;;;;;-5.92;59.61;99497.56;5109636;28;20468;-77
2022/03/02 04:37:51;;;;;;;102.20;36.47;;;;;;;-5.96;59.50;99505.03;5089210;28;20035;-77
2022/03/02 04:40:17;;;;;;;106.18;37.40;;;;;;;-5.99;59.94;99500.88;5110521;28;20479;-76
2022/03/02 04:42:43;;;;;;;105.88;35.38;;;;;;;-6.01;59.72;99499.38;5110624;28;20404;-77
2022/03/02 04:45:10;;;;;;;132.02;41.95;;;;;;;-6.04;59.75;99497.88;5110000;28;20024;-77
2022/03/02 04:47:35;;;;;;;138.02;42.15;;;;;;;-6.04;60.06;99500.56;5110663;28;20034;-77
2022/03/02 04:50:01;;;;;;;124.85;40.80;;;;;;;-6.06;60.54;99491.88;5109854;28;20035;-77
2022/03/02 04:52:26;;;;;;;114.75;38.53;;;;;;;-6.06;60.88;99494.53;5109937;28;20038;-77
2022/03/02 04:55:07;;;;;;;128.52;38.58;;;;;;;-6.06;60.52;99499.03;5109443;28;20028;-77
2022/03/02 04:57:38;;;;;;;138.23;42.25;;;;;;;-6.12;60.28;99487.19;5109434;28;20079;-76
2022/03/02 05:00:09;;;;;;;129.20;41.08;;;;;;;-6.13;60.70;99489.03;5109547;28;20036;-77
2022/03/02 05:02:35;;;;;;;138.95;42.63;;;;;;;-6.11;60.81;99491.53;5110411;28;20020;-77
2022/03/02 05:05:00;;;;;;;148.23;44.95;;;;;;;-6.10;60.67;99489.66;5110310;28;20115;-77
2022/03/02 05:07:26;;;;;;;125.32;39.10;;;;;;;-6.10;61.08;99485.19;5110132;28;20024;-76
2022/03/02 05:09:51;;;;;;;117.60;39.33;;;;;;;-6.09;61.19;99486.00;5110060;28;20024;-76
2022/03/02 05:12:17;;;;;;;130.05;41.38;;;;;;;-6.10;61.38;99482.50;5110663;28;20053;-76
2022/03/02 05:14:42;;;;;;;121.93;41.25;;;;;;;-6.07;60.56;99484.00;5109846;28;20019;-76
2022/03/02 05:17:08;;;;;;;121.63;39.45;;;;;;;-6.07;60.81;99486.69;5109818;28;20031;-76
2022/03/02 05:19:33;;;;;;;108.95;36.53;;;;;;;-6.09;60.67;99489.53;5109968;28;20023;-77
2022/03/02 05:22:00;;;;;;;108.15;38.50;;;;;;;-6.12;61.57;99484.50;5109629;28;20020;-77
2022/03/02 05:24:25;;;;;;;107.22;36.55;;;;;;;-6.14;61.03;99484.69;5109053;28;20023;-77
2022/03/02 05:26:51;;;;;;;102.30;37.80;;;;;;;-6.16;61.50;99477.81;5110099;28;20487;-77
2022/03/02 05:29:16;;;;;;;101.80;36.08;;;;;;;-6.18;61.74;99474.47;5109347;28;20031;-77
2022/03/02 05:31:42;;;;;;;82.03;32.08;;;;;;;-6.17;61.84;99476.13;5109452;28;20026;-76
2022/03/02 05:34:07;;;;;;;88.88;34.80;;;;;;;-6.16;61.50;99484.00;5109770;28;20673;-76
2022/03/02 05:36:32;;;;;;;92.35;33.20;;;;;;;-6.13;61.50;99486.34;5109527;28;20031;-77
2022/03/02 05:38:59;;;;;;;89.30;35.35;;;;;;;-6.09;61.73;99489.53;5109214;28;20028;-77
2022/03/02 05:41:24;;;;;;;93.18;35.33;;;;;;;-6.07;61.75;99482.19;5090019;28;20479;-77
2022/03/02 05:43:52;;;;;;;118.32;40.55;;;;;;;-6.06;61.63;99488.34;5109869;28;20061;-77
2022/03/02 05:46:17;;;;;;;110.05;37.88;;;;;;;-6.05;61.82;99488.19;5109118;28;20041;-77
2022/03/02 05:48:43;;;;;;;109.47;38.95;;;;;;;-6.02;61.69;99485.22;5109672;28;20023;-77
2022/03/02 05:51:08;;;;;;;130.35;45.00;;;;;;;-6.00;61.74;99483.19;5090345;28;20027;-77
2022/03/02 05:53:34;;;;;;;149.35;50.95;;;;;;;-5.96;61.74;99483.69;5109859;28;20032;-77
2022/03/02 05:55:59;;;;;;;187.10;61.05;;;;;;;-5.93;61.97;99480.69;5109168;28;20110;-76
2022/03/02 05:58:25;;;;;;;169.02;50.88;;;;;;;-5.91;61.80;99481.34;5109022;28;20492;-77
2022/03/02 06:00:51;;;;;;;160.23;53.35;;;;;;;-5.88;62.31;99475.69;5107697;28;20028;-77
2022/03/02 06:03:17;;;;;;;150.85;48.67;;;;;;;-5.83;62.49;99483.19;5111150;28;20027;-77
2022/03/02 06:05:42;;;;;;;132.90;45.28;;;;;;;-5.78;61.93;99480.03;5110416;28;20110;-77
2022/03/02 06:08:09;;;;;;;119.35;41.15;;;;;;;-5.76;61.85;99484.22;5110732;28;20115;-77
2022/03/02 06:10:36;;;;;;;97.75;37.10;;;;;;;-5.72;62.19;99485.56;5110374;28;20514;-76
2022/03/02 06:13:02;;;;;;;106.30;38.05;;;;;;;-5.67;62.47;99482.38;5110650;28;20103;-77
2022/03/02 06:15:27;;;;;;;102.30;38.03;;;;;;;-5.61;62.44;99484.38;5109418;28;20110;-76
2022/03/02 06:17:53;;;;;;;100.22;39.22;;;;;;;-5.53;61.99;99483.59;5110478;28;20035;-76
2022/03/02 06:20:19;;;;;;;100.97;37.97;;;;;;;-5.44;62.47;99484.41;5109339;28;20028;-77
2022/03/02 06:22:45;;;;;;;89.80;37.88;;;;;;;-5.38;62.49;99487.25;5108282;28;20035;-77
2022/03/02 06:25:11;;;;;;;118.25;43.50;;;;;;;-5.29;62.15;99488.06;5106401;28;20044;-77
2022/03/02 06:27:38;;;;;;;117.60;44.95;;;;;;;-5.19;62.28;99487.06;5106604;28;20429;-77
2022/03/02 06:30:06;;;;;;;122.90;48.88;;;;;;;-5.12;62.23;99488.06;5109941;28;20118;-76
2022/03/02 06:32:33;;;;;;;123.30;49.58;;;;;;;-5.00;62.51;99483.19;5110651;28;20084;-77
2022/03/02 06:34:59;;;;;;;112.90;47.45;;;;;;;-4.87;62.53;99485.34;5107281;28;20383;-76
2022/03/02 06:37:26;;;;;;;93.82;41.47;;;;;;;-4.72;62.65;99485.50;5110719;28;20023;-77
2022/03/02 06:39:51;;;;;;;109.35;48.25;;;;;;;-4.57;62.75;99475.72;5113415;28;20027;-77
2022/03/02 06:42:22;;;;;;;102.32;45.28;;;;;;;-4.45;62.35;99486.91;5110115;28;20072;-77
2022/03/02 06:45:04;;;;;;;109.72;49.55;;;;;;;-4.31;62.24;99471.97;5112213;28;20436;-76
2022/03/02 06:47:55;;;;;;;169.13;73.18;;;;;;;-4.23;62.45;99469.22;5110925;28;20035;-77
2022/03/02 06:50:25;;;;;;;211.80;91.00;;;;;;;-4.18;61.93;99474.91;5091209;28;20403;-77
2022/03/02 06:52:53;;;;;;;169.73;75.05;;;;;;;-4.14;61.79;99475.41;5114903;28;20077;-77
2022/03/02 06:55:18;;;;;;;130.57;58.60;;;;;;;-4.08;62.30;99476.53;5113128;28;20024;-76
2022/03/02 06:58:00;;;;;;;98.97;40.25;;;;;;;-4.04;61.35;99475.16;5112089;28;20031;-77
2022/03/02 07:00:26;;;;;;;78.40;34.70;;;;;;;-3.97;61.83;99475.28;5108998;28;20387;-77
2022/03/02 07:03:03;;;;;;;80.95;35.05;;;;;;;-3.92;61.66;99470.22;5114050;28;20063;-77
2022/03/02 07:05:29;;;;;;;77.13;32.75;;;;;;;-3.82;61.76;99467.31;5113406;28;20476;-77
2022/03/02 07:07:54;;;;;;;79.57;33.28;;;;;;;-3.76;61.94;99474.66;5116284;27;20111;-77
2022/03/02 07:10:20;;;;;;;81.65;36.05;;;;;;;-3.66;61.69;99469.91;5113924;28;20061;-77
2022/03/02 07:12:45;;;;;;;84.65;36.67;;;;;;;-3.55;62.08;99468.63;5113988;28;20019;-77
2022/03/02 07:15:12;;;;;;;92.93;40.10;;;;;;;-3.42;61.74;99459.97;5094834;28;20028;-77
2022/03/02 07:17:39;;;;;;;89.93;38.53;;;;;;;-3.33;61.72;99463.47;5113784;27;20090;-77
2022/03/02 07:20:07;;;;;;;82.40;36.08;;;;;;;-3.22;61.89;99456.81;5093516;28;20447;-77
2022/03/02 07:22:35;;;;;;;94.72;42.03;;;;;;;-3.08;61.87;99458.69;5113662;28;20027;-77
2022/03/02 07:25:19;;;;;;;86.28;35.78;;;;;;;-2.98;61.55;99455.75;5112831;28;20399;-77
2022/03/02 07:27:45;;;;;;;86.32;35.45;;;;;;;-2.94;61.33;99458.88;5113870;27;20039;-77
2022/03/02 07:30:11;;;;;;;85.38;37.53;;;;;;;-2.88;61.46;99461.69;5094113;28;20032;-77
2022/03/02 07:32:41;;;;;;;86.70;37.13;;;;;;;-2.82;61.38;99459.25;5113601;28;20098;-78
2022/03/02 07:35:07;;;;;;;92.07;36.33;;;;;;;-2.78;60.96;99457.88;5112914;28;20517;-78
2022/03/02 07:37:33;;;;;;;87.57;36.60;;;;;;;-2.72;61.29;99451.78;5114801;27;20051;-78
2022/03/02 07:39:59;;;;;;;84.10;36.17;;;;;;;-2.64;60.83;99450.84;5113308;28;20031;-77
2022/03/02 07:42:26;;;;;;;84.53;34.83;;;;;;;-2.55;61.66;99445.19;5113519;28;20475;-77
2022/03/02 07:44:53;;;;;;;85.45;33.67;;;;;;;-2.47;61.25;99455.00;5112553;28;20039;-76
2022/03/02 07:47:19;;;;;;;72.90;32.55;;;;;;;-2.37;61.23;99453.91;5112360;27;20052;-78
2022/03/02 07:49:46;;;;;;;76.30;31.45;;;;;;;-2.27;61.16;99452.56;5112003;28;20047;-78
2022/03/02 07:52:13;;;;;;;72.70;32.42;;;;;;;-2.15;60.71;99457.47;5110563;28;20059;-77
2022/03/02 07:54:40;;;;;;;74.82;30.83;;;;;;;-2.05;60.97;99449.94;5111287;28;20543;-77
2022/03/02 07:57:11;;;;;;;65.03;26.80;;;;;;;-1.95;61.07;99446.94;5113005;27;20076;-77
2022/03/02 07:59:44;;;;;;;56.80;26.60;;;;;;;-1.84;60.79;99442.91;5113019;28;20035;-77
2022/03/02 08:02:11;;;;;;;75.70;33.55;;;;;;;-1.72;60.21;99446.78;5112045;28;20031;-78
2022/03/02 08:04:39;;;;;;;74.25;31.40;;;;;;;-1.64;60.13;99437.75;5111647;28;20380;-78
2022/03/02 08:07:05;;;;;;;73.57;34.38;;;;;;;-1.55;60.20;99436.59;5111611;27;20037;-78
2022/03/02 08:09:31;;;;;;;68.18;30.23;;;;;;;-1.47;59.98;99434.78;5112056;28;20038;-79
2022/03/02 08:11:58;;;;;;;71.05;31.33;;;;;;;-1.39;59.85;99443.56;5112714;27;20031;-78
2022/03/02 08:14:24;;;;;;;67.70;30.20;;;;;;;-1.28;59.85;99444.06;5112327;28;20060;-77
2022/03/02 08:16:52;;;;;;;69.13;30.27;;;;;;;-1.21;59.72;99429.63;5112384;28;20111;-77
2022/03/02 08:19:19;;;;;;;72.90;30.38;;;;;;;-1.11;59.69;99440.03;5112748;28;20119;-78
2022/03/02 08:21:50;;;;;;;65.85;27.27;;;;;;;-0.99;59.42;99426.88;5093683;28;20476;-79
2022/03/02 08:24:17;;;;;;;69.82;28.38;;;;;;;-0.88;59.29;99427.34;5112528;27;20161;-77
2022/03/02 08:26:47;;;;;;;67.15;27.75;;;;;;;-0.77;58.64;99424.94;5112354;27;20493;-77
2022/03/02 08:29:13;;;;;;;61.47;26.65;;;;;;;-0.69;58.80;99425.81;5113623;27;20035;-78
2022/03/02 08:31:41;;;;;;;66.63;28.27;;;;;;;-0.63;57.85;99415.09;5111018;28;20043;-78
2022/03/02 08:34:08;;;;;;;67.63;29.13;;;;;;;-0.56;58.30;99412.41;5110415;28;20023;-78
2022/03/02 08:36:34;;;;;;;59.67;25.10;;;;;;;-0.47;58.24;99413.06;5110216;28;20460;-75
2022/03/02 08:39:09;;;;;;;73.82;29.92;;;;;;;-0.37;58.34;99400.06;5112105;27;20031;-81
2022/03/02 08:41:36;;;;;;;66.75;27.63;;;;;;;-0.25;57.93;99408.38;5111310;27;20272;-79
2022/03/02 08:44:02;;;;;;;72.97;30.33;;;;;;;-0.15;57.85;99405.31;5112980;27;20034;-79
2022/03/02 08:46:28;;;;;;;77.72;30.55;;;;;;;-0.03;57.30;99403.69;5110776;27;20128;-77
2022/03/02 08:48:54;;;;;;;63.95;27.88;;;;;;;0.08;57.58;99398.75;5108424;28;20122;-78
2022/03/02 08:51:22;;;;;;;53.28;25.60;;;;;;;0.18;57.41;99388.41;5110569;28;20027;-77
2022/03/02 08:53:50;;;;;;;52.90;22.42;;;;;;;0.31;57.41;99381.34;5110212;28;20030;-78
2022/03/02 08:56:17;;;;;;;51.25;23.58;;;;;;;0.40;56.69;99385.50;5105055;28;20045;-79
2022/03/02 08:58:44;;;;;;;47.42;21.33;;;;;;;0.46;55.93;99373.03;5108414;28;20518;-80
2022/03/02 09:01:12;;;;;;;50.20;21.88;;;;;;;0.53;55.94;99379.25;5109562;28;20164;-77
2022/03/02 09:03:43;;;;;;;53.88;21.95;;;;;;;0.59;55.73;99378.44;5108504;28;20027;-79
2022/03/02 09:06:10;;;;;;;63.03;23.67;;;;;;;0.63;55.20;99373.44;5105911;28;20032;-82
2022/03/02 09:08:37;;;;;;;47.65;20.67;;;;;;;0.71;55.36;99365.97;5109317;28;20028;-76
2022/03/02 09:11:02;;;;;;;46.40;20.65;;;;;;;0.79;55.24;99366.81;5109515;28;20035;-78
2022/03/02 09:13:29;;;;;;;56.35;21.77;;;;;;;0.93;54.90;99367.63;5109310;28;20031;-79
2022/03/02 09:15:54;;;;;;;55.92;20.10;;;;;;;1.04;54.69;99359.69;5108546;28;20058;-80
2022/03/02 09:18:19;;;;;;;42.40;19.17;;;;;;;1.14;55.03;99351.13;5108035;28;20464;-78
2022/03/02 09:20:50;;;;;;;42.35;18.13;;;;;;;1.27;53.62;99357.53;5089435;28;20020;-77
2022/03/02 09:23:16;;;;;;;55.47;20.48;;;;;;;1.39;53.87;99353.16;5108557;27;20035;-77
2022/03/02 09:25:44;;;;;;;32.05;14.70;;;;;;;1.53;54.01;99353.06;5108706;28;20034;-78
2022/03/02 09:28:10;;;;;;;46.17;18.23;;;;;;;1.67;53.46;99351.97;5107849;28;20073;-78
2022/03/02 09:30:37;;;;;;;33.53;14.63;;;;;;;1.76;52.46;99347.97;5107200;28;20031;-80
2022/03/02 09:33:10;;;;;;;33.72;15.73;;;;;;;1.82;52.45;99343.56;5098754;28;20051;-76
2022/03/02 09:35:36;;;;;;;32.65;16.77;;;;;;;1.92;52.63;99353.91;5100472;28;20071;-77
2022/03/02 09:38:01;;;;;;;45.83;18.60;;;;;;;1.99;52.04;99349.28;5107393;28;20107;-77
2022/03/02 09:40:29;;;;;;;47.05;18.13;;;;;;;2.06;51.23;99341.13;5107008;28;20118;-79
2022/03/02 09:42:58;;;;;;;37.08;17.15;;;;;;;2.11;50.12;99337.78;5105086;28;20031;-80
2022/03/02 09:45:25;;;;;;;33.35;16.50;;;;;;;2.18;50.99;99349.38;5113143;27;20027;-84
2022/03/02 09:47:59;;;;;;;60.85;23.05;;;;;;;2.27;50.06;99339.91;5090665;28;20031;-78
2022/03/02 09:50:31;;;;;;;41.10;19.33;;;;;;;2.37;50.52;99344.88;5112589;28;20023;-82
2022/03/02 09:53:01;;;;;;;49.45;20.85;;;;;;;2.42;50.46;99342.34;5105628;28;20073;-74
2022/03/02 09:55:27;;;;;;;47.17;20.70;;;;;;;2.50;50.12;99338.50;5100525;28;20514;-79
2022/03/02 09:57:57;;;;;;;43.55;18.90;;;;;;;2.52;49.91;99333.69;5108707;28;20044;-81
2022/03/02 10:00:25;;;;;;;39.45;17.50;;;;;;;2.58;49.15;99334.69;5107228;28;20612;-82
2022/03/02 10:02:56;;;;;;;31.10;15.10;;;;;;;2.61;48.09;99328.81;5107522;28;20027;-80
2022/03/02 10:05:24;;;;;;;37.20;16.42;;;;;;;2.65;49.10;99328.16;5106467;28;20020;-78
2022/03/02 10:08:05;;;;;;;60.55;24.23;;;;;;;2.76;49.04;99332.03;5107600;28;20427;-77
2022/03/02 10:10:33;;;;;;;47.92;21.88;;;;;;;2.85;48.21;99331.75;5111761;28;20383;-75
2022/03/02 10:13:01;;;;;;;43.58;21.45;;;;;;;2.92;48.75;99325.19;5111894;28;20011;-76
2022/03/02 10:15:28;;;;;;;55.58;22.83;;;;;;;2.95;47.71;99316.63;5110139;28;20032;-79
2022/03/02 10:17:57;;;;;;;47.38;20.75;;;;;;;3.04;48.02;99310.91;5111290;28;20023;-80
2022/03/02 10:20:29;;;;;;;51.75;21.73;;;;;;;3.13;48.74;99307.66;5110365;28;20055;-79
2022/03/02 10:23:14;;;;;;;44.20;21.75;;;;;;;3.28;48.82;99301.84;5110867;28;20031;-80
2022/03/02 10:26:03;;;;;;;46.20;22.30;;;;;;;3.34;48.08;99308.22;5108918;28;21061;-80
2022/03/02 10:28:48;;;;;;;48.08;20.90;;;;;;;3.37;47.80;99304.25;5111570;28;20050;-79
2022/03/02 10:31:13;;;;;;;39.55;18.48;;;;;;;3.41;47.71;99302.75;5111684;28;20031;-78
2022/03/02 10:33:47;;;;;;;30.92;15.60;;;;;;;3.49;46.00;99302.41;5112409;28;20058;-78
2022/03/02 10:36:14;;;;;;;29.40;15.00;;;;;;;3.53;47.17;99300.88;5093001;28;20810;-78
2022/03/02 10:38:39;;;;;;;50.80;19.83;;;;;;;3.60;46.04;99295.41;5112670;28;20498;-80
2022/03/02 10:41:08;;;;;;;30.40;13.68;;;;;;;3.55;45.60;99287.94;5112529;28;20064;-81
2022/03/02 10:43:51;;;;;;;22.47;11.90;;;;;;;3.60;46.50;99283.69;5112216;28;20106;-81
2022/03/02 10:46:21;;;;;;;26.58;13.00;;;;;;;3.66;46.80;99280.91;5113106;28;20278;-80
2022/03/02 10:49:00;;;;;;;30.67;14.00;;;;;;;3.74;45.70;99277.03;5113645;28;20035;-84
2022/03/02 10:51:26;;;;;;;18.83;9.82;;;;;;;3.73;45.20;99272.66;5113847;28;20035;-78
2022/03/02 10:53:53;;;;;;;22.80;11.80;;;;;;;3.73;44.90;99267.25;5112278;28;20824;-80
2022/03/02 10:56:20;;;;;;;19.42;10.75;;;;;;;3.72;45.35;99271.00;5111858;28;20046;-77
2022/03/02 10:58:49;;;;;;;19.40;10.73;;;;;;;3.76;44.60;99264.06;5111255;28;20043;-79
2022/03/02 11:01:17;;;;;;;28.60;13.45;;;;;;;3.82;44.02;99263.16;5113013;28;20122;-77
2022/03/02 11:03:44;;;;;;;18.48;10.60;;;;;;;3.84;45.08;99257.47;5113967;27;20102;-77
2022/03/02 11:06:11;;;;;;;23.00;11.38;;;;;;;3.86;44.25;99250.78;5113175;28;20056;-78
2022/03/02 11:08:41;;;;;;;20.23;10.27;;;;;;;3.85;42.96;99253.69;5092622;28;20072;-77
2022/03/02 11:11:09;;;;;;;22.13;12.23;;;;;;;3.85;43.63;99245.56;5109423;28;20066;-77
2022/03/02 11:13:34;;;;;;;19.85;9.98;;;;;;;3.95;44.19;99244.97;5108280;28;20019;-76